Time;durP1;ratioP1;P1;durP2;ratioP2;P2;SDS_P1;SDS_P2;PMS_P1;PMS_P2;Temp;Humidity;BMP_temperature;BMP_pressure;BME280_temperature;BME280_humidity;BME280_pressure;Samples;Min_cycle;Max_cycle;Signal;HPM_P1;HPM_P2
2021/07/11 00:00:22;;;;;;;22.13;14.07;;;;;;;13.77;100.00;97817.09;5016167;28;20057;-84
2021/07/11 00:02:52;;;;;;;20.02;14.30;;;;;;;13.80;100.00;97813.72;5016973;28;20055;-84
2021/07/11 00:05:21;;;;;;;21.98;12.25;;;;;;;13.82;100.00;97799.75;5016218;28;20055;-84
2021/07/11 00:07:47;;;;;;;23.98;12.80;;;;;;;13.80;100.00;97808.28;5035133;28;20299;-83
2021/07/11 00:10:18;;;;;;;23.48;11.63;;;;;;;13.74;100.00;97804.94;5017293;28;20053;-83
2021/07/11 00:12:47;;;;;;;18.10;12.27;;;;;;;13.71;100.00;97802.06;5029274;28;20513;-84
2021/07/11 00:15:17;;;;;;;20.67;12.48;;;;;;;13.78;100.00;97798.84;5014350;28;20050;-84
2021/07/11 00:17:46;;;;;;;21.63;12.35;;;;;;;13.74;100.00;97799.50;5015490;28;20046;-85
2021/07/11 00:20:15;;;;;;;17.15;12.50;;;;;;;13.73;100.00;97797.91;5019228;28;20034;-84
2021/07/11 00:22:42;;;;;;;23.73;13.25;;;;;;;13.73;100.00;97786.22;5018361;28;20113;-85
2021/07/11 00:25:10;;;;;;;17.38;12.20;;;;;;;13.81;100.00;97798.19;5014289;28;20053;-84
2021/07/11 00:27:37;;;;;;;18.10;12.45;;;;;;;13.96;100.00;97809.25;5015243;28;20026;-84
2021/07/11 00:30:09;;;;;;;16.85;11.75;;;;;;;14.04;100.00;97792.06;5034222;28;20030;-85
2021/07/11 00:32:37;;;;;;;22.80;12.13;;;;;;;14.05;100.00;97785.50;5036707;28;20029;-84
2021/07/11 00:35:05;;;;;;;15.80;10.93;;;;;;;14.06;100.00;97789.03;5036483;28;20037;-85
2021/07/11 00:37:31;;;;;;;18.48;11.60;;;;;;;14.17;100.00;97787.47;5009020;28;20056;-83
2021/07/11 00:39:58;;;;;;;22.77;11.85;;;;;;;14.26;100.00;97771.84;5015988;28;20046;-83
2021/07/11 00:42:25;;;;;;;18.45;11.35;;;;;;;14.38;100.00;97777.38;5014962;28;20307;-83
2021/07/11 00:44:52;;;;;;;16.85;10.35;;;;;;;14.44;100.00;97767.84;5013742;28;20048;-84
2021/07/11 00:47:19;;;;;;;19.23;10.65;;;;;;;14.41;100.00;97765.81;5014449;28;20049;-84
2021/07/11 00:49:46;;;;;;;18.42;9.90;;;;;;;14.43;100.00;97765.47;5014653;28;20121;-84
2021/07/11 00:52:14;;;;;;;16.73;10.02;;;;;;;14.51;100.00;97770.00;5013605;28;20073;-84
2021/07/11 00:54:41;;;;;;;13.77;10.38;;;;;;;14.51;100.00;97770.00;5015466;28;20493;-84
2021/07/11 00:57:07;;;;;;;22.83;9.68;;;;;;;14.53;100.00;97776.72;5026747;28;20514;-84
2021/07/11 00:59:37;;;;;;;15.57;9.05;;;;;;;14.56;100.00;97772.53;5017128;28;20072;-84
2021/07/11 01:02:15;;;;;;;15.20;9.38;;;;;;;14.59;100.00;97769.13;5013201;28;20493;-84
2021/07/11 01:04:55;;;;;;;15.43;9.15;;;;;;;14.73;100.00;97764.19;4997757;28;20053;-83
2021/07/11 01:07:31;;;;;;;17.70;8.70;;;;;;;14.74;100.00;97765.75;4998189;28;20038;-83
2021/07/11 01:10:07;;;;;;;23.38;8.55;;;;;;;14.82;100.00;97757.47;5013921;28;20065;-83
2021/07/11 01:12:43;;;;;;;20.65;9.07;;;;;;;14.77;100.00;97760.44;5014453;28;20065;-84
2021/07/11 01:15:10;;;;;;;;;;;;;;;14.84;100.00;97770.78;5013899;28;20068;-83
2021/07/11 01:17:38;;;;;;;17.02;8.85;;;;;;;14.83;100.00;97759.09;5015273;28;19929;-83
2021/07/11 01:20:59;;;;;;;23.52;9.18;;;;;;;14.93;100.00;97769.53;5015571;28;20050;-84
2021/07/11 01:23:50;;;;;;;14.45;8.23;;;;;;;14.97;100.00;97770.44;4975579;28;20074;-83
2021/07/11 01:26:19;;;;;;;20.25;9.05;;;;;;;15.03;100.00;97757.38;4995502;28;20069;-84
2021/07/11 01:28:48;;;;;;;16.88;8.70;;;;;;;15.14;100.00;97763.97;5012997;28;20416;-84
2021/07/11 01:31:17;;;;;;;15.18;8.75;;;;;;;15.15;100.00;97756.59;5016613;28;20116;-84
2021/07/11 01:33:46;;;;;;;17.02;9.30;;;;;;;15.13;100.00;97753.41;4998717;28;20045;-84
2021/07/11 01:36:13;;;;;;;10.90;8.00;;;;;;;15.24;100.00;97760.00;4998471;28;20054;-84
2021/07/11 01:38:41;;;;;;;15.95;9.63;;;;;;;15.28;100.00;97756.25;4999054;28;20505;-84
2021/07/11 01:41:10;;;;;;;12.93;9.15;;;;;;;15.34;100.00;97760.34;4999189;28;20389;-84
2021/07/11 01:43:40;;;;;;;13.85;9.10;;;;;;;15.36;100.00;97759.97;5016092;28;20517;-84
2021/07/11 01:46:09;;;;;;;13.18;9.75;;;;;;;15.38;100.00;97755.00;5015152;28;20179;-84
2021/07/11 01:48:37;;;;;;;12.98;9.35;;;;;;;15.40;100.00;97750.78;5006688;28;20050;-85
2021/07/11 01:51:05;;;;;;;13.05;9.20;;;;;;;15.42;100.00;97736.78;5032461;28;20041;-84
2021/07/11 01:53:37;;;;;;;14.93;9.60;;;;;;;15.32;100.00;97737.25;5015554;28;20060;-85
2021/07/11 01:56:06;;;;;;;15.57;8.80;;;;;;;15.27;100.00;97741.03;5031931;28;20065;-85
2021/07/11 01:58:33;;;;;;;16.45;9.98;;;;;;;15.28;100.00;97745.31;5015803;28;20042;-85
2021/07/11 02:01:02;;;;;;;15.60;9.68;;;;;;;15.29;100.00;97746.13;5007896;28;20236;-86
2021/07/11 02:03:30;;;;;;;15.88;10.25;;;;;;;15.19;100.00;97736.47;5003542;28;20100;-85
2021/07/11 02:05:57;;;;;;;16.63;10.68;;;;;;;15.23;100.00;97739.31;5002591;28;20474;-85
2021/07/11 02:08:24;;;;;;;13.35;9.73;;;;;;;15.14;100.00;97735.91;5018510;28;20045;-85
2021/07/11 02:10:52;;;;;;;16.65;10.00;;;;;;;15.06;100.00;97743.06;5001374;28;20065;-85
2021/07/11 02:13:41;;;;;;;15.18;11.10;;;;;;;15.03;100.00;97746.47;5000587;28;20088;-85
2021/07/11 02:16:20;;;;;;;15.85;10.98;;;;;;;14.96;100.00;97741.59;4999287;28;20346;-84
2021/07/11 02:18:49;;;;;;;16.00;11.63;;;;;;;14.91;100.00;97736.38;5015447;28;20100;-85
2021/07/11 02:21:22;;;;;;;16.00;11.95;;;;;;;14.92;100.00;97735.22;5015377;28;20394;-84
2021/07/11 02:23:50;;;;;;;16.10;12.13;;;;;;;14.84;100.00;97724.44;4999086;28;20168;-84
2021/07/11 02:26:17;;;;;;;17.17;11.77;;;;;;;14.79;100.00;97722.72;5016256;28;20046;-85
2021/07/11 02:28:45;;;;;;;13.63;11.63;;;;;;;14.76;100.00;97730.81;5014266;28;20049;-85
2021/07/11 02:31:13;;;;;;;17.63;11.70;;;;;;;14.70;100.00;97741.13;4979201;28;20049;-84
2021/07/11 02:33:42;;;;;;;17.75;11.80;;;;;;;14.69;100.00;97742.25;4984293;28;20284;-85
2021/07/11 02:36:13;;;;;;;16.52;11.13;;;;;;;14.60;100.00;97729.88;5004075;28;20050;-85
2021/07/11 02:38:49;;;;;;;15.40;11.35;;;;;;;14.48;100.00;97717.00;5000288;28;20093;-85
2021/07/11 02:41:18;;;;;;;18.48;11.70;;;;;;;14.57;100.00;97727.81;5015860;28;20065;-84
2021/07/11 02:43:47;;;;;;;16.65;11.50;;;;;;;14.59;100.00;97733.72;4999356;28;20050;-84
2021/07/11 02:46:20;;;;;;;22.02;10.88;;;;;;;14.52;100.00;97725.31;4999251;28;20108;-85
2021/07/11 02:48:49;;;;;;;16.95;11.52;;;;;;;14.57;100.00;97736.78;4996392;28;20137;-85
2021/07/11 02:51:19;;;;;;;20.35;11.82;;;;;;;14.50;100.00;97713.97;5010738;28;20054;-84
2021/07/11 02:53:48;;;;;;;17.60;12.30;;;;;;;14.54;100.00;97725.75;4977265;28;20046;-84
2021/07/11 02:56:18;;;;;;;18.10;11.40;;;;;;;14.50;100.00;97722.13;4977233;28;20101;-84
2021/07/11 02:58:53;;;;;;;16.55;11.98;;;;;;;14.53;100.00;97724.97;4991277;28;20057;-84
2021/07/11 03:01:24;;;;;;;15.35;11.40;;;;;;;14.48;100.00;97725.19;4975611;28;20100;-84
2021/07/11 03:03:54;;;;;;;15.93;12.05;;;;;;;14.48;100.00;97730.63;5005574;28;20163;-85
2021/07/11 03:06:20;;;;;;;22.48;11.88;;;;;;;14.35;100.00;97709.94;5010802;28;20243;-84
2021/07/11 03:08:48;;;;;;;17.48;13.10;;;;;;;14.37;100.00;97715.88;4999322;28;20109;-85
2021/07/11 03:11:18;;;;;;;14.88;11.43;;;;;;;14.42;100.00;97731.19;5003592;28;20085;-85
2021/07/11 03:13:46;;;;;;;20.42;11.88;;;;;;;14.40;100.00;97717.13;5012721;28;20042;-84
2021/07/11 03:16:14;;;;;;;19.52;13.18;;;;;;;14.39;100.00;97721.78;5017560;28;20484;-84
2021/07/11 03:18:41;;;;;;;17.42;12.63;;;;;;;14.32;100.00;97714.13;5000259;28;20050;-84
2021/07/11 03:21:08;;;;;;;17.85;12.90;;;;;;;14.37;100.00;97720.50;4999551;28;20130;-85
2021/07/11 03:23:36;;;;;;;19.25;12.38;;;;;;;14.32;100.00;97721.53;5000636;28;20121;-86
2021/07/11 03:26:03;;;;;;;17.13;11.35;;;;;;;14.31;100.00;97715.28;4999787;28;20046;-85
2021/07/11 03:28:35;;;;;;;21.70;12.68;;;;;;;14.37;100.00;97726.75;4998566;28;20050;-85
2021/07/11 03:31:06;;;;;;;21.65;12.55;;;;;;;14.34;100.00;97730.16;5015266;28;20046;-86
2021/07/11 03:33:39;;;;;;;18.15;12.32;;;;;;;14.30;100.00;97727.25;5025075;28;20038;-84
2021/07/11 03:36:07;;;;;;;18.33;12.30;;;;;;;14.30;100.00;97721.81;4994349;28;20064;-85
2021/07/11 03:38:39;;;;;;;20.80;11.85;;;;;;;14.38;100.00;97727.53;5010723;28;20060;-84
2021/07/11 03:41:07;;;;;;;18.05;12.05;;;;;;;14.46;100.00;97724.72;5011124;28;20052;-84
2021/07/11 03:43:38;;;;;;;21.05;12.15;;;;;;;14.52;100.00;97722.59;5009949;28;20073;-85
2021/07/11 03:46:09;;;;;;;19.92;11.38;;;;;;;14.59;100.00;97720.91;4993952;28;20046;-84
2021/07/11 03:48:43;;;;;;;14.85;10.48;;;;;;;14.73;100.00;97723.31;4997156;28;20365;-85
2021/07/11 03:51:11;;;;;;;16.55;10.07;;;;;;;14.81;100.00;97708.78;5011630;28;20050;-84
2021/07/11 03:53:39;;;;;;;15.38;9.45;;;;;;;14.94;100.00;97727.50;5011153;28;20049;-85
2021/07/11 03:56:09;;;;;;;16.10;9.43;;;;;;;15.12;100.00;97711.72;5021205;28;20079;-85
2021/07/11 03:58:40;;;;;;;13.10;8.60;;;;;;;15.17;100.00;97718.88;5000931;28;20061;-86
2021/07/11 04:01:07;;;;;;;15.20;8.55;;;;;;;15.27;100.00;97723.84;4999397;28;20065;-85
2021/07/11 04:03:41;;;;;;;11.95;8.30;;;;;;;15.36;100.00;97721.78;5015406;28;20464;-85
2021/07/11 04:06:14;;;;;;;14.13;8.07;;;;;;;15.47;100.00;97720.22;5016303;28;20152;-84
2021/07/11 04:08:44;;;;;;;9.95;8.20;;;;;;;15.53;100.00;97725.09;4998111;28;20103;-84
2021/07/11 04:11:11;;;;;;;11.88;8.23;;;;;;;15.66;100.00;97708.69;5012911;28;20049;-83
2021/07/11 04:13:38;;;;;;;15.77;8.27;;;;;;;15.66;100.00;97705.97;5013546;28;20410;-85
2021/07/11 04:16:08;;;;;;;15.52;7.97;;;;;;;15.66;100.00;97712.22;5010307;28;20038;-84
2021/07/11 04:18:44;;;;;;;11.30;7.93;;;;;;;15.73;100.00;97717.06;5009280;28;20121;-84
2021/07/11 04:21:13;;;;;;;10.95;7.68;;;;;;;15.77;100.00;97721.50;5015123;28;20057;-85
2021/07/11 04:23:41;;;;;;;14.90;7.72;;;;;;;15.80;100.00;97718.06;5025568;28;20053;-85
2021/07/11 04:26:09;;;;;;;15.25;8.02;;;;;;;15.95;100.00;97720.06;5023813;28;20042;-85
2021/07/11 04:28:42;;;;;;;11.05;7.18;;;;;;;15.99;100.00;97710.06;5015789;28;20056;-86
2021/07/11 04:31:10;;;;;;;11.73;7.78;;;;;;;16.14;100.00;97717.50;5002270;28;20046;-85
2021/07/11 04:33:37;;;;;;;10.55;7.45;;;;;;;16.23;100.00;97709.16;5002057;28;20053;-85
2021/07/11 04:36:06;;;;;;;8.02;6.90;;;;;;;16.32;100.00;97704.31;5020767;28;20144;-85
2021/07/11 04:38:33;;;;;;;14.02;7.25;;;;;;;16.39;100.00;97706.44;5018830;28;20056;-85
2021/07/11 04:41:03;;;;;;;12.68;6.97;;;;;;;16.45;100.00;97702.28;5020462;28;20454;-86
2021/07/11 04:43:30;;;;;;;9.27;6.82;;;;;;;16.50;100.00;97696.56;5004674;28;20070;-83
2021/07/11 04:45:57;;;;;;;9.80;6.60;;;;;;;16.58;100.00;97701.91;5027456;28;20486;-85
2021/07/11 04:48:24;;;;;;;9.30;6.55;;;;;;;16.70;100.00;97709.22;5026844;28;20050;-85
2021/07/11 04:50:51;;;;;;;10.15;6.18;;;;;;;16.73;100.00;97713.97;5027631;28;20105;-86
2021/07/11 04:53:17;;;;;;;12.85;7.03;;;;;;;16.80;100.00;97708.72;5027367;28;20203;-85
2021/07/11 04:55:46;;;;;;;8.50;6.25;;;;;;;16.91;100.00;97704.25;5025013;28;20054;-86
2021/07/11 04:58:13;;;;;;;9.77;6.78;;;;;;;16.94;100.00;97710.97;5021371;28;20066;-85
2021/07/11 05:00:41;;;;;;;8.95;6.50;;;;;;;16.98;100.00;97722.81;5022086;28;20136;-86
2021/07/11 05:03:07;;;;;;;12.00;5.85;;;;;;;17.03;100.00;97709.66;5018649;28;20050;-85
2021/07/11 05:05:35;;;;;;;9.88;6.30;;;;;;;17.10;100.00;97709.81;5022020;28;20042;-85
2021/07/11 05:08:03;;;;;;;9.30;6.35;;;;;;;17.16;100.00;97716.59;5005747;28;20056;-86
2021/07/11 05:10:30;;;;;;;9.27;6.07;;;;;;;17.17;100.00;97722.84;5021079;28;20532;-86
2021/07/11 05:12:57;;;;;;;8.57;5.65;;;;;;;17.31;100.00;97720.47;5023707;28;20069;-86
2021/07/11 05:15:23;;;;;;;9.73;5.50;;;;;;;17.38;100.00;97728.81;5042354;28;20053;-86
2021/07/11 05:17:52;;;;;;;8.38;5.70;;;;;;;17.31;100.00;97724.00;5017831;28;20077;-78
2021/07/11 05:20:19;;;;;;;11.65;5.65;;;;;;;17.46;100.00;97725.09;5017497;28;20042;-83
2021/07/11 05:22:46;;;;;;;8.82;5.78;;;;;;;17.51;100.00;97724.81;5023004;28;20158;-83
2021/07/11 05:25:12;;;;;;;8.60;6.22;;;;;;;17.54;100.00;97728.81;5016527;28;20125;-82
2021/07/11 05:27:39;;;;;;;9.77;5.97;;;;;;;17.59;100.00;97723.84;5019385;28;20057;-85
2021/07/11 05:30:06;;;;;;;9.00;6.18;;;;;;;17.88;100.00;97737.00;5021245;28;20061;-85
2021/07/11 05:32:33;;;;;;;11.35;6.97;;;;;;;17.97;100.00;97734.03;5020785;28;20045;-85
2021/07/11 05:35:00;;;;;;;13.98;6.95;;;;;;;18.07;100.00;97736.19;5004842;28;20042;-85
2021/07/11 05:37:27;;;;;;;10.43;6.00;;;;;;;18.34;100.00;97732.44;5005609;28;20068;-85
2021/07/11 05:39:54;;;;;;;9.23;6.03;;;;;;;18.33;100.00;97717.16;5011290;28;20050;-84
2021/07/11 05:42:20;;;;;;;7.68;5.40;;;;;;;18.26;100.00;97732.66;5016890;28;20187;-84
2021/07/11 05:44:47;;;;;;;6.78;5.55;;;;;;;18.51;100.00;97726.53;5012918;28;20070;-84
2021/07/11 05:47:14;;;;;;;8.93;5.38;;;;;;;18.39;100.00;97721.19;4999327;28;20080;-85
2021/07/11 05:49:40;;;;;;;8.23;5.22;;;;;;;18.58;100.00;97723.91;5016858;28;20049;-86
2021/07/11 05:52:07;;;;;;;7.10;4.57;;;;;;;18.85;100.00;97734.94;5015721;28;20140;-87
2021/07/11 05:54:34;;;;;;;8.98;4.43;;;;;;;18.94;100.00;97732.75;5015147;28;20116;-84
2021/07/11 05:57:01;;;;;;;7.05;5.20;;;;;;;18.71;100.00;97734.72;5016926;28;20073;-83
2021/07/11 05:59:29;;;;;;;10.52;4.88;;;;;;;18.84;100.00;97733.38;5033606;28;20077;-85
2021/07/11 06:01:55;;;;;;;8.35;5.35;;;;;;;18.82;100.00;97732.94;5016641;28;20069;-83
2021/07/11 06:04:22;;;;;;;6.22;5.07;;;;;;;18.82;100.00;97730.97;5017086;28;20053;-85
2021/07/11 06:06:48;;;;;;;7.82;5.13;;;;;;;18.78;100.00;97732.09;5022230;28;20054;-84
2021/07/11 06:09:18;;;;;;;7.70;4.97;;;;;;;18.82;100.00;97741.16;5013640;28;20046;-85
2021/07/11 06:11:44;;;;;;;8.82;5.35;;;;;;;18.80;100.00;97730.56;5011787;28;20113;-84
2021/07/11 06:14:14;;;;;;;7.70;4.85;;;;;;;18.87;100.00;97722.44;5002930;28;20054;-85
2021/07/11 06:16:47;;;;;;;7.10;5.20;;;;;;;18.95;100.00;97717.88;5016456;28;20060;-86
2021/07/11 06:19:15;;;;;;;8.57;4.60;;;;;;;19.03;100.00;97728.59;5002296;28;20057;-87
2021/07/11 06:21:43;;;;;;;11.25;4.80;;;;;;;19.10;100.00;97712.25;5004132;28;20057;-84
2021/07/11 06:24:16;;;;;;;7.05;4.70;;;;;;;19.08;100.00;97703.59;5019506;28;20520;-83
2021/07/11 06:26:52;;;;;;;6.80;4.78;;;;;;;19.22;100.00;97709.31;5018439;28;20129;-85
2021/07/11 06:29:19;;;;;;;7.32;4.40;;;;;;;19.40;100.00;97715.09;5019292;28;20066;-86
2021/07/11 06:31:48;;;;;;;7.43;4.35;;;;;;;19.56;100.00;97729.41;5003823;28;20050;-84
2021/07/11 06:34:15;;;;;;;9.02;4.75;;;;;;;19.62;100.00;97732.63;5022927;28;20133;-85
2021/07/11 06:36:43;;;;;;;7.47;4.88;;;;;;;19.65;100.00;97721.72;4995245;28;20042;-82
2021/07/11 06:39:10;;;;;;;7.05;4.60;;;;;;;19.79;100.00;97734.84;5012464;28;20076;-82
2021/07/11 06:41:41;;;;;;;6.30;4.70;;;;;;;19.45;100.00;97731.25;5011555;28;20042;-88
2021/07/11 06:44:08;;;;;;;6.80;4.45;;;;;;;19.70;100.00;97751.59;4990224;28;20054;-84
2021/07/11 06:46:37;;;;;;;8.20;4.70;;;;;;;19.74;100.00;97743.44;5013181;28;20058;-86
2021/07/11 06:49:04;;;;;;;6.32;4.30;;;;;;;19.82;100.00;97745.88;5014877;28;20450;-86
2021/07/11 06:51:35;;;;;;;7.05;4.30;;;;;;;19.97;100.00;97754.31;5013643;28;20049;-84
2021/07/11 06:54:02;;;;;;;5.97;3.72;;;;;;;20.20;100.00;97747.56;5014334;28;20076;-84
2021/07/11 06:56:29;;;;;;;6.60;3.80;;;;;;;20.39;100.00;97750.13;5015584;28;20057;-84
2021/07/11 06:58:56;;;;;;;10.63;4.38;;;;;;;20.46;100.00;97755.75;4998297;28;20053;-85
2021/07/11 07:01:23;;;;;;;6.72;4.03;;;;;;;20.56;100.00;97758.97;4995122;28;20505;-85
2021/07/11 07:03:50;;;;;;;5.63;4.10;;;;;;;20.52;100.00;97751.47;5021602;28;20104;-86
2021/07/11 07:06:17;;;;;;;5.25;3.88;;;;;;;20.66;100.00;97742.56;5028125;28;20036;-86
2021/07/11 07:08:44;;;;;;;9.95;4.20;;;;;;;20.60;100.00;97733.06;5001237;28;20461;-86
2021/07/11 07:11:11;;;;;;;6.82;3.95;;;;;;;20.69;100.00;97744.56;5014460;28;20050;-85
2021/07/11 07:13:37;;;;;;;5.85;3.47;;;;;;;20.88;100.00;97733.34;4999056;28;20109;-86
2021/07/11 07:16:04;;;;;;;5.07;3.90;;;;;;;20.97;100.00;97741.28;4998174;28;20141;-84
2021/07/11 07:18:33;;;;;;;4.03;3.30;;;;;;;21.26;100.00;97732.13;4996284;28;20053;-87
2021/07/11 07:21:00;;;;;;;6.95;3.95;;;;;;;21.24;100.00;97736.44;4997257;28;20140;-86
2021/07/11 07:23:27;;;;;;;5.65;3.53;;;;;;;21.26;100.00;97728.56;4996541;28;20096;-89
2021/07/11 07:25:53;;;;;;;6.20;3.40;;;;;;;21.53;100.00;97733.47;4998389;28;20497;-85
2021/07/11 07:28:29;;;;;;;6.80;3.33;;;;;;;21.43;100.00;97742.47;4993958;28;20393;-83
2021/07/11 07:30:56;;;;;;;5.00;3.65;;;;;;;21.40;100.00;97728.66;5019718;28;20052;-84
2021/07/11 07:33:23;;;;;;;4.82;3.30;;;;;;;21.44;100.00;97735.00;5011459;28;20060;-84
2021/07/11 07:35:49;;;;;;;7.20;3.60;;;;;;;21.76;100.00;97744.25;5029895;28;20034;-83
2021/07/11 07:38:16;;;;;;;4.65;3.65;;;;;;;22.19;100.00;97737.00;5027670;28;20045;-83
2021/07/11 07:40:43;;;;;;;4.07;3.28;;;;;;;22.40;100.00;97726.06;5021396;28;20078;-86
2021/07/11 07:43:13;;;;;;;3.85;3.08;;;;;;;22.47;100.00;97722.50;5007452;28;20046;-83
2021/07/11 07:45:43;;;;;;;4.65;2.90;;;;;;;22.30;100.00;97733.09;5007070;28;20517;-84
2021/07/11 07:48:12;;;;;;;4.72;3.15;;;;;;;22.35;100.00;97735.47;5011091;28;20061;-85
2021/07/11 07:50:40;;;;;;;3.25;2.88;;;;;;;22.47;100.00;97728.03;5012648;28;20054;-79
2021/07/11 07:53:07;;;;;;;4.20;2.60;;;;;;;22.05;100.00;97734.19;5006480;28;20054;-78
2021/07/11 07:55:36;;;;;;;4.82;2.90;;;;;;;22.08;100.00;97727.91;5006836;28;20046;-77
2021/07/11 07:58:02;;;;;;;3.70;2.63;;;;;;;22.35;100.00;97734.69;5003540;28;20050;-76
2021/07/11 08:00:29;;;;;;;4.55;2.70;;;;;;;22.42;100.00;97733.94;5006316;28;20050;-78
2021/07/11 08:02:56;;;;;;;5.28;2.88;;;;;;;22.47;100.00;97737.09;5004975;28;20049;-84
2021/07/11 08:05:23;;;;;;;5.78;2.88;;;;;;;21.91;100.00;97729.38;5012738;28;20325;-84
2021/07/11 08:07:49;;;;;;;6.20;2.90;;;;;;;22.13;100.00;97733.03;5011325;28;20448;-84
2021/07/11 08:10:16;;;;;;;5.68;2.83;;;;;;;22.20;100.00;97739.38;5011604;28;20129;-85
2021/07/11 08:12:52;;;;;;;4.28;2.65;;;;;;;22.33;100.00;97724.03;5013659;28;20050;-84
2021/07/11 08:15:19;;;;;;;;;;;;;;;22.51;100.00;97734.34;4996021;28;20049;-85
2021/07/11 08:17:48;;;;;;;8.40;5.00;;;;;;;22.46;100.00;97729.19;4995366;28;19940;-85
2021/07/11 08:20:22;;;;;;;4.55;3.28;;;;;;;22.81;100.00;97723.78;5019482;28;20567;-86
2021/07/11 08:22:52;;;;;;;4.75;2.92;;;;;;;22.87;100.00;97733.25;5024758;28;20504;-85
2021/07/11 08:25:21;;;;;;;4.32;2.80;;;;;;;22.83;100.00;97733.25;5015919;28;20053;-86
2021/07/11 08:27:52;;;;;;;4.93;3.15;;;;;;;22.97;100.00;97737.97;4999810;28;20092;-86
2021/07/11 08:30:22;;;;;;;5.80;3.78;;;;;;;22.93;100.00;97743.53;4999574;28;20064;-85
2021/07/11 08:32:49;;;;;;;4.30;3.13;;;;;;;22.71;100.00;97747.41;4998452;28;20125;-86
2021/07/11 08:35:16;;;;;;;6.68;2.88;;;;;;;23.06;100.00;97759.69;4997506;28;20050;-85
2021/07/11 08:37:44;;;;;;;3.30;2.88;;;;;;;23.41;100.00;97754.19;5012026;28;20465;-85
2021/07/11 08:40:12;;;;;;;4.97;3.05;;;;;;;23.37;100.00;97753.41;5013243;28;20054;-84
2021/07/11 08:42:41;;;;;;;7.40;2.63;;;;;;;23.60;100.00;97744.69;5012130;28;20061;-84
2021/07/11 08:45:14;;;;;;;6.03;2.72;;;;;;;23.36;100.00;97751.78;5022114;28;20065;-86
2021/07/11 08:47:41;;;;;;;5.32;3.10;;;;;;;23.45;100.00;97743.94;5001377;28;20053;-84
2021/07/11 08:50:11;;;;;;;5.95;3.30;;;;;;;22.87;100.00;97741.53;5009775;28;20521;-85
2021/07/11 08:52:39;;;;;;;4.88;2.60;;;;;;;23.48;100.00;97751.44;5009950;28;20058;-83
2021/07/11 08:55:19;;;;;;;4.32;3.10;;;;;;;23.91;100.00;97746.59;5013635;28;20104;-83
2021/07/11 08:57:49;;;;;;;9.20;3.20;;;;;;;24.50;100.00;97753.91;5014339;28;20049;-84
2021/07/11 09:00:19;;;;;;;4.13;2.72;;;;;;;24.86;100.00;97750.94;5013998;28;20125;-84
2021/07/11 09:02:45;;;;;;;6.50;2.92;;;;;;;24.95;100.00;97752.09;5017878;28;20045;-83
2021/07/11 09:05:34;;;;;;;5.18;2.70;;;;;;;25.37;100.00;97753.72;5024403;28;20045;-85
2021/07/11 09:08:08;;;;;;;3.47;2.70;;;;;;;25.47;100.00;97758.44;5032102;28;20044;-85
2021/07/11 09:10:40;;;;;;;6.03;2.72;;;;;;;25.90;100.00;97745.72;5032077;28;20444;-82
2021/07/11 09:13:15;;;;;;;7.78;3.38;;;;;;;25.92;100.00;97762.72;5028646;28;20046;-82
2021/07/11 09:15:47;;;;;;;8.98;2.60;;;;;;;26.09;100.00;97752.63;5006020;28;20084;-85
2021/07/11 09:18:50;;;;;;;3.22;2.42;;;;;;;26.28;100.00;97762.34;5024063;28;20077;-85
2021/07/11 09:21:17;;;;;;;7.50;2.90;;;;;;;26.02;100.00;97749.94;5020943;28;20061;-84
2021/07/11 09:23:44;;;;;;;4.00;2.53;;;;;;;25.86;100.00;97766.38;5021513;28;20567;-85
2021/07/11 09:26:14;;;;;;;3.47;2.58;;;;;;;26.72;100.00;97767.72;5018881;28;20061;-85
2021/07/11 09:28:48;;;;;;;3.13;2.30;;;;;;;26.62;100.00;97757.53;5017406;28;20038;-84
2021/07/11 09:31:17;;;;;;;4.95;2.40;;;;;;;26.95;100.00;97758.69;5015552;28;20552;-84
2021/07/11 09:33:53;;;;;;;3.40;2.40;;;;;;;26.57;100.00;97758.00;4996132;28;20153;-84
2021/07/11 09:36:21;;;;;;;;;;;;;;;27.13;100.00;97765.53;5014897;28;20516;-82
2021/07/11 09:38:53;;;;;;;3.95;2.33;;;;;;;27.57;100.00;97769.22;5000385;28;19929;-82
2021/07/11 09:41:26;;;;;;;4.53;2.45;;;;;;;27.65;100.00;97751.19;5021227;28;20451;-81
2021/07/11 09:43:59;;;;;;;3.55;2.15;;;;;;;27.58;100.00;97762.47;5031019;28;20050;-82
2021/07/11 09:46:33;;;;;;;2.83;2.30;;;;;;;26.89;100.00;97763.94;5031122;28;20042;-82
2021/07/11 09:49:14;;;;;;;4.22;2.40;;;;;;;27.15;100.00;97765.91;5031604;28;20533;-82
2021/07/11 09:51:41;;;;;;;3.38;2.30;;;;;;;26.99;100.00;97770.53;5030394;28;20053;-80
2021/07/11 09:54:13;;;;;;;3.65;2.50;;;;;;;26.56;100.00;97771.09;5029475;28;20103;-82
2021/07/11 09:56:45;;;;;;;4.00;2.30;;;;;;;25.88;100.00;97775.06;5030498;28;20091;-81
2021/07/11 09:59:14;;;;;;;4.13;2.47;;;;;;;25.81;100.00;97767.59;5031628;28;20064;-80
2021/07/11 10:01:43;;;;;;;3.20;2.40;;;;;;;25.42;100.00;97766.38;5032805;28;20092;-79
2021/07/11 10:04:11;;;;;;;6.82;2.42;;;;;;;25.44;100.00;97762.00;5030192;28;20045;-85
2021/07/11 10:06:39;;;;;;;5.75;2.30;;;;;;;25.12;100.00;97764.22;5021806;28;20058;-84
2021/07/11 10:09:11;;;;;;;4.45;2.42;;;;;;;25.42;100.00;97765.16;5010305;28;20045;-83
2021/07/11 10:11:39;;;;;;;3.13;2.63;;;;;;;25.31;100.00;97758.94;5002494;28;20321;-81
2021/07/11 10:14:08;;;;;;;2.85;2.30;;;;;;;25.12;100.00;97767.00;5020923;28;20045;-84
2021/07/11 10:16:36;;;;;;;5.07;2.42;;;;;;;25.29;100.00;97766.09;5015307;28;20045;-83
2021/07/11 10:19:08;;;;;;;3.92;2.55;;;;;;;25.37;100.00;97757.28;5014339;28;20421;-83
2021/07/11 10:21:45;;;;;;;4.15;2.35;;;;;;;25.49;100.00;97763.56;4984221;28;20057;-86
2021/07/11 10:24:18;;;;;;;3.83;2.35;;;;;;;25.47;100.00;97758.44;4993734;28;20817;-84
2021/07/11 10:26:52;;;;;;;4.53;2.50;;;;;;;25.04;100.00;97768.22;5010003;28;20042;-83
2021/07/11 10:29:21;;;;;;;4.03;2.40;;;;;;;24.79;100.00;97754.56;5010865;28;20053;-82
2021/07/11 10:31:51;;;;;;;4.72;2.60;;;;;;;24.91;100.00;97762.38;5013140;28;20058;-83
2021/07/11 10:34:34;;;;;;;2.83;2.30;;;;;;;25.21;100.00;97764.56;5017571;28;20093;-83
2021/07/11 10:37:12;;;;;;;37.55;11.32;;;;;;;25.30;100.00;97759.31;5010062;28;20052;-82
2021/07/11 10:39:39;;;;;;;10.38;4.70;;;;;;;25.40;100.00;97769.53;5011112;28;20390;-82
2021/07/11 10:42:09;;;;;;;10.45;5.07;;;;;;;25.68;100.00;97749.88;5010330;28;20049;-83
2021/07/11 10:44:36;;;;;;;11.30;5.03;;;;;;;25.89;100.00;97762.75;4992574;28;20050;-81
2021/07/11 10:47:06;;;;;;;30.50;8.55;;;;;;;25.90;100.00;97758.78;5008213;28;20050;-84
2021/07/11 10:52:24;;;;;;;7.65;3.65;;;;;;;26.32;100.00;97765.88;5009851;28;20516;-82
2021/07/11 10:54:53;;;;;;;4.38;3.70;;;;;;;26.79;100.00;97764.09;5005636;28;20049;-81
2021/07/11 10:57:32;;;;;;;9.20;3.60;;;;;;;27.15;100.00;97754.03;5007717;28;20099;-84
2021/07/11 11:00:07;;;;;;;4.28;3.45;;;;;;;27.11;100.00;97759.63;5006189;28;20100;-83
2021/07/11 11:02:37;;;;;;;4.05;3.22;;;;;;;27.27;100.00;97764.53;5008199;28;20136;-81
2021/07/11 11:05:16;;;;;;;8.18;3.80;;;;;;;26.70;100.00;97766.56;5008897;28;20046;-82
2021/07/11 11:08:12;;;;;;;7.32;3.67;;;;;;;26.07;100.00;97760.56;4992939;28;20061;-83
2021/07/11 11:10:42;;;;;;;4.67;3.63;;;;;;;26.16;100.00;97762.88;5006746;28;20046;-85
2021/07/11 11:13:27;;;;;;;5.88;3.45;;;;;;;26.58;100.00;97767.91;5010773;28;20045;-82
2021/07/11 11:16:02;;;;;;;5.57;3.50;;;;;;;26.51;100.00;97762.44;5011657;28;20650;-82
2021/07/11 11:18:29;;;;;;;6.45;4.47;;;;;;;25.86;100.00;97769.16;5008885;28;20437;-83
2021/07/11 11:21:04;;;;;;;5.43;3.97;;;;;;;25.90;100.00;97767.91;5010074;28;20134;-82
2021/07/11 11:23:38;;;;;;;7.35;4.00;;;;;;;25.98;100.00;97760.28;5009903;28;20077;-82
2021/07/11 11:26:07;;;;;;;8.98;3.95;;;;;;;26.01;100.00;97760.22;5009398;28;20042;-80
2021/07/11 11:28:35;;;;;;;7.15;4.32;;;;;;;25.81;100.00;97764.81;5008693;28;20050;-80
2021/07/11 11:31:17;;;;;;;6.10;3.90;;;;;;;25.97;100.00;97767.81;5007693;28;20046;-82
2021/07/11 11:34:05;;;;;;;6.85;4.55;;;;;;;25.95;100.00;97763.88;5014789;28;20050;-82